createdAt,value
2022-10-11T00:05:20.207Z,7.23
2022-10-11T00:18:07.199Z,8.50
2022-10-11T00:46:13.587Z,10.93
2022-10-11T00:58:59.399Z,22.23
2022-10-11T01:20:39.123Z,8.50
2022-10-11T01:33:29.754Z,17.40
2022-10-11T01:57:27.718Z,10.70
2022-10-11T02:21:12.042Z,15.40
2022-10-11T02:42:44.983Z,7.30
2022-10-11T02:55:32.775Z,7.67
2022-10-11T03:08:21.160Z,10.40
2022-10-11T03:21:07.360Z,12.73
2022-10-11T03:33:53.164Z,8.90
2022-10-11T03:46:41.339Z,17.17
2022-10-11T04:01:38.528Z,16.13
2022-10-11T04:14:26.204Z,18.87
2022-10-11T04:27:13.429Z,11.43
2022-10-11T04:46:30.978Z,11.50
2022-10-11T04:48:51.947Z,12.93
2022-10-11T05:01:39.651Z,13.93
2022-10-11T05:16:35.004Z,12.30
2022-10-11T05:35:49.571Z,16.70
2022-10-11T05:48:34.909Z,16.13
2022-10-11T06:05:43.606Z,17.20
2022-10-11T06:18:46.008Z,15.36
2022-10-11T06:31:32.867Z,15.20
2022-10-11T06:33:53.303Z,16.53
2022-10-11T06:46:52.548Z,17.17
2022-10-11T07:01:48.039Z,19.07
2022-10-11T07:27:01.141Z,30.07
2022-10-11T07:39:46.900Z,30.70
2022-10-11T07:42:10.335Z,28.17
2022-10-11T07:44:30.143Z,30.90
2022-10-11T07:46:50.642Z,31.33
2022-10-11T07:49:09.646Z,28.10
2022-10-11T08:01:55.282Z,28.13
2022-10-11T08:32:18.827Z,30.13
2022-10-11T08:34:41.863Z,30.43
2022-10-11T08:47:29.216Z,33.73
2022-10-11T08:49:35.289Z,28.87
2022-10-11T08:51:43.429Z,34.33
2022-10-11T08:53:52.872Z,32.40
2022-10-11T08:55:56.969Z,29.03
2022-10-11T08:58:04.063Z,25.37
2022-10-11T09:00:12.439Z,31.10
2022-10-11T09:02:23.330Z,30.80
2022-10-11T09:04:28.901Z,27.40
2022-10-11T09:06:43.903Z,27.83
2022-10-11T09:09:00.995Z,29.50
2022-10-11T09:11:10.038Z,23.90
2022-10-11T09:13:31.126Z,29.90
2022-10-11T09:15:46.921Z,29.67
2022-10-11T09:18:19.408Z,27.60
2022-10-11T09:20:47.259Z,30.47
2022-10-11T09:22:56.883Z,25.97
2022-10-11T09:25:19.766Z,24.63
2022-10-11T09:27:50.305Z,25.23
2022-10-11T09:30:00.898Z,21.27
2022-10-11T09:32:04.494Z,20.83
2022-10-11T09:34:12.464Z,21.47
2022-10-11T09:36:21.716Z,23.50
2022-10-11T09:38:35.564Z,21.87
2022-10-11T09:40:47.847Z,21.93
2022-10-11T09:42:51.139Z,20.53
2022-10-11T09:44:55.302Z,21.10
2022-10-11T09:46:59.103Z,21.40
2022-10-11T09:49:04.141Z,19.87
2022-10-11T09:51:14.340Z,18.13
2022-10-11T09:53:19.354Z,25.60
2022-10-11T09:55:32.338Z,23.73
2022-10-11T09:57:37.706Z,27.27
2022-10-11T09:59:41.084Z,22.53
2022-10-11T10:01:44.681Z,25.03
2022-10-11T10:03:47.972Z,17.30
2022-10-11T10:06:05.949Z,18.47
2022-10-11T10:08:26.877Z,21.37
2022-10-11T10:10:35.038Z,18.10
2022-10-11T10:12:38.225Z,20.33
2022-10-11T10:14:41.903Z,20.47
2022-10-11T10:16:45.109Z,17.07
2022-10-11T10:18:51.496Z,16.53
2022-10-11T10:20:56.425Z,21.73
2022-10-11T10:23:00.614Z,24.00
2022-10-11T10:25:08.099Z,18.70
2022-10-11T10:27:21.334Z,19.03
2022-10-11T10:29:24.351Z,18.25
2022-10-11T10:31:40.290Z,23.13
2022-10-11T10:33:55.918Z,17.33
2022-10-11T10:36:02.606Z,18.83
2022-10-11T10:38:13.730Z,22.03
2022-10-11T10:40:21.476Z,20.87
2022-10-11T10:42:24.560Z,20.10
2022-10-11T10:44:27.698Z,21.73
2022-10-11T10:46:47.206Z,24.90
2022-10-11T10:49:28.783Z,20.10
2022-10-11T10:51:27.592Z,19.30
2022-10-11T10:53:35.521Z,19.80
2022-10-11T10:55:43.564Z,26.03
2022-10-11T10:57:57.904Z,21.00
2022-10-11T11:00:12.325Z,20.63
2022-10-11T11:02:39.086Z,21.37
2022-10-11T11:04:47.215Z,17.77
2022-10-11T11:06:51.850Z,16.80
2022-10-11T11:09:05.360Z,20.07
2022-10-11T11:11:19.013Z,19.33
2022-10-11T11:13:28.617Z,17.47
2022-10-11T11:15:38.203Z,15.53
2022-10-11T11:17:53.443Z,19.60
2022-10-11T11:20:10.025Z,12.67
2022-10-11T11:22:17.609Z,15.67
2022-10-11T11:24:28.820Z,15.37
2022-10-11T11:26:44.037Z,14.20
2022-10-11T11:28:54.402Z,17.40
2022-10-11T11:31:04.626Z,17.13
2022-10-11T11:33:16.364Z,15.73
2022-10-11T11:35:27.801Z,14.87
2022-10-11T11:37:33.834Z,13.90
2022-10-11T11:39:39.036Z,16.35
2022-10-11T11:41:46.557Z,16.37
2022-10-11T11:43:58.413Z,14.30
2022-10-11T11:46:06.738Z,13.53
2022-10-11T11:48:14.716Z,15.43
2022-10-11T11:50:22.827Z,12.37
2022-10-11T11:52:30.509Z,15.37
2022-10-11T11:54:40.780Z,15.53
2022-10-11T11:56:53.087Z,17.73
2022-10-11T11:59:03.248Z,17.10
2022-10-11T12:01:16.998Z,14.03
2022-10-11T12:03:23.357Z,14.27
2022-10-11T12:05:28.821Z,16.67
2022-10-11T12:07:32.027Z,21.43
2022-10-11T12:09:39.743Z,15.20
2022-10-11T12:11:49.982Z,18.67
2022-10-11T12:13:54.573Z,12.47
2022-10-11T12:16:13.983Z,13.57
2022-10-11T12:18:18.206Z,14.37
2022-10-11T12:20:25.294Z,16.57
2022-10-11T12:23:00.188Z,14.83
2022-10-11T12:25:43.576Z,11.80
2022-10-11T12:27:48.474Z,14.93
2022-10-11T12:29:51.948Z,10.60
2022-10-11T12:32:27.690Z,10.83
2022-10-11T12:34:35.610Z,12.60
2022-10-11T12:36:43.308Z,13.67
2022-10-11T12:38:46.630Z,16.10
2022-10-11T12:40:54.280Z,12.73
2022-10-11T12:43:27.376Z,12.23
2022-10-11T12:45:32.839Z,11.20
2022-10-11T12:47:39.262Z,12.63
2022-10-11T12:49:53.151Z,15.17
2022-10-11T12:52:01.539Z,13.47
2022-10-11T12:54:27.108Z,15.53
2022-10-11T12:56:43.771Z,14.47
2022-10-11T12:58:48.681Z,13.23
2022-10-11T13:01:16.705Z,20.97
2022-10-11T13:03:32.602Z,11.80
2022-10-11T13:05:45.049Z,15.60
2022-10-11T13:07:49.300Z,13.60
2022-10-11T13:09:54.457Z,12.00
2022-10-11T13:12:02.399Z,14.63
2022-10-11T13:14:11.092Z,11.73
2022-10-11T13:16:16.787Z,11.93
2022-10-11T13:18:22.643Z,10.57
2022-10-11T13:20:27.998Z,12.33
2022-10-11T13:22:35.470Z,13.80
2022-10-11T13:24:40.075Z,20.73
2022-10-11T13:26:44.838Z,13.83
2022-10-11T13:28:49.392Z,12.80
2022-10-11T13:30:54.437Z,17.47
2022-10-11T13:32:57.947Z,15.80
2022-10-11T13:35:03.401Z,12.63
2022-10-11T13:37:06.925Z,13.70
2022-10-11T13:39:30.130Z,13.53
2022-10-11T13:41:35.284Z,15.93
2022-10-11T13:43:38.612Z,12.27
2022-10-11T13:45:43.543Z,14.93
2022-10-11T13:47:47.600Z,12.13
2022-10-11T13:50:02.725Z,15.40
2022-10-11T13:52:14.534Z,12.90
2022-10-11T13:54:17.750Z,16.60
2022-10-11T13:56:21.149Z,12.47
2022-10-11T13:58:27.678Z,15.10
2022-10-11T14:00:33.586Z,17.83
2022-10-11T14:02:39.095Z,16.87
2022-10-11T14:04:42.646Z,14.93
2022-10-11T14:06:48.143Z,13.60
2022-10-11T14:08:54.264Z,13.07
2022-10-11T14:11:00.293Z,13.17
2022-10-11T14:13:08.679Z,13.37
2022-10-11T14:15:25.983Z,15.50
2022-10-11T14:17:41.360Z,17.40
2022-10-11T14:19:45.052Z,15.70
2022-10-11T14:21:51.440Z,14.40
2022-10-11T14:23:56.905Z,13.07
2022-10-11T14:25:59.966Z,12.97
2022-10-11T14:28:05.671Z,16.70
2022-10-11T14:30:29.901Z,15.33
2022-10-11T14:32:34.490Z,16.77
2022-10-11T14:34:39.216Z,14.37
2022-10-11T14:36:42.291Z,15.00
2022-10-11T14:38:45.513Z,13.47
2022-10-11T14:40:48.607Z,20.30
2022-10-11T14:42:51.838Z,13.77
2022-10-11T14:44:54.920Z,17.50
2022-10-11T14:46:57.947Z,23.80
2022-10-11T14:49:01.000Z,14.30
2022-10-11T14:51:06.400Z,15.83
2022-10-11T14:53:10.943Z,15.30
2022-10-11T14:55:14.143Z,16.30
2022-10-11T14:57:17.173Z,21.07
2022-10-11T14:59:21.969Z,20.00
2022-10-11T15:01:25.411Z,13.37
2022-10-11T15:03:28.494Z,15.13
2022-10-11T15:05:34.221Z,15.93
2022-10-11T15:07:39.066Z,17.67
2022-10-11T15:09:42.201Z,14.53
2022-10-11T15:11:45.286Z,19.03
2022-10-11T15:13:48.435Z,13.57
2022-10-11T15:15:51.435Z,16.80
2022-10-11T15:17:56.070Z,14.57
2022-10-11T15:19:59.723Z,13.63
2022-10-11T15:22:05.905Z,16.67
2022-10-11T15:24:10.790Z,15.57
2022-10-11T15:26:15.786Z,18.43
2022-10-11T15:28:24.720Z,15.80
2022-10-11T15:30:30.219Z,18.47
2022-10-11T15:32:33.330Z,18.53
2022-10-11T15:34:36.522Z,13.27
2022-10-11T15:36:41.744Z,17.83
2022-10-11T15:38:45.646Z,15.70
2022-10-11T15:40:50.389Z,14.07
2022-10-11T15:42:54.686Z,13.80
2022-10-11T15:44:58.877Z,16.27
2022-10-11T15:47:01.987Z,20.33
2022-10-11T15:49:12.872Z,14.70
2022-10-11T15:51:15.961Z,18.00
2022-10-11T15:53:20.811Z,14.67
2022-10-11T15:55:23.940Z,17.53
2022-10-11T15:57:28.558Z,16.97
2022-10-11T15:59:31.600Z,14.17
2022-10-11T16:01:34.736Z,16.63
2022-10-11T16:03:37.891Z,16.43
2022-10-11T16:05:41.722Z,18.33
2022-10-11T16:07:44.865Z,16.00
2022-10-11T16:09:47.966Z,14.00
2022-10-11T16:11:50.995Z,20.90
2022-10-11T16:13:55.494Z,19.20
2022-10-11T16:15:58.512Z,19.50
2022-10-11T16:18:02.370Z,18.40
2022-10-11T16:20:07.295Z,16.00
2022-10-11T16:22:10.373Z,14.70
2022-10-11T16:24:13.456Z,16.60
2022-10-11T16:26:17.066Z,16.00
2022-10-11T16:28:20.216Z,17.90
2022-10-11T16:30:24.907Z,20.97
2022-10-11T16:32:28.182Z,20.73
2022-10-11T16:34:31.394Z,15.87
2022-10-11T16:36:36.964Z,17.20
2022-10-11T16:38:40.078Z,14.60
2022-10-11T16:40:43.720Z,17.37
2022-10-11T16:42:47.417Z,18.50
2022-10-11T16:44:50.594Z,14.93
2022-10-11T16:46:55.764Z,15.23
2022-10-11T16:48:59.200Z,17.70
2022-10-11T16:51:09.414Z,14.83
2022-10-11T16:53:15.481Z,13.23
2022-10-11T16:55:18.943Z,16.43
2022-10-11T16:57:22.166Z,18.20
2022-10-11T16:59:25.448Z,19.70
2022-10-11T17:01:29.632Z,20.00
2022-10-11T17:03:34.078Z,18.87
2022-10-11T17:05:37.689Z,17.90
2022-10-11T17:07:40.729Z,23.03
2022-10-11T17:09:45.592Z,19.23
2022-10-11T17:11:48.865Z,16.00
2022-10-11T17:13:53.604Z,17.40
2022-10-11T17:15:56.660Z,21.00
2022-10-11T17:17:59.934Z,18.30
2022-10-11T17:20:04.846Z,26.73
2022-10-11T17:22:07.926Z,23.07
2022-10-11T17:24:10.968Z,18.40
2022-10-11T17:26:17.351Z,25.70
2022-10-11T17:28:20.812Z,19.20
2022-10-11T17:30:24.225Z,21.20
2022-10-11T17:32:27.312Z,22.90
2022-10-11T17:34:30.566Z,17.90
2022-10-11T17:36:35.342Z,18.63
2022-10-11T17:38:38.330Z,26.37
2022-10-11T17:40:41.584Z,18.57
2022-10-11T17:42:45.107Z,27.10
2022-10-11T17:44:48.157Z,26.60
2022-10-11T17:46:51.250Z,18.77
2022-10-11T17:48:55.580Z,26.67
2022-10-11T17:50:58.749Z,22.53
2022-10-11T17:53:03.101Z,25.63
2022-10-11T17:55:06.898Z,19.60
2022-10-11T17:57:10.038Z,19.17
2022-10-11T17:59:16.817Z,23.73
2022-10-11T18:01:21.752Z,20.07
2022-10-11T18:03:24.752Z,20.30
2022-10-11T18:05:27.924Z,19.47
2022-10-11T18:07:31.040Z,17.40
2022-10-11T18:09:36.803Z,31.53
2022-10-11T18:11:39.951Z,30.93
2022-10-11T18:13:46.242Z,27.47
2022-10-11T18:15:53.501Z,22.00
2022-10-11T18:17:59.583Z,24.07
2022-10-11T18:20:04.130Z,60.07
2022-10-11T18:22:08.779Z,81.37
2022-10-11T18:24:15.190Z,61.80
2022-10-11T18:26:26.681Z,45.00
2022-10-11T18:28:33.854Z,52.50
2022-10-11T18:30:42.930Z,41.57
2022-10-11T18:32:47.225Z,35.33
2022-10-11T18:34:55.037Z,26.80
2022-10-11T18:37:00.212Z,26.83
2022-10-11T18:39:05.428Z,61.40
2022-10-11T18:41:09.884Z,28.20
2022-10-11T18:43:14.464Z,26.73
2022-10-11T18:45:17.721Z,24.03
2022-10-11T18:47:21.135Z,27.53
2022-10-11T18:49:24.273Z,26.77
2022-10-11T18:51:29.549Z,59.43
2022-10-11T18:53:33.244Z,49.20
2022-10-11T18:55:36.563Z,26.77
2022-10-11T18:57:39.853Z,30.57
2022-10-11T18:59:44.880Z,30.53
2022-10-11T19:01:48.186Z,26.17
2022-10-11T19:03:53.719Z,26.27
2022-10-11T19:05:56.965Z,31.13
2022-10-11T19:08:00.259Z,26.03
2022-10-11T19:10:04.084Z,27.37
2022-10-11T19:12:07.427Z,22.00
2022-10-11T19:14:12.268Z,25.93
2022-10-11T19:16:18.273Z,21.33
2022-10-11T19:18:22.126Z,21.00
2022-10-11T19:20:25.842Z,25.13
2022-10-11T19:22:29.120Z,21.90
2022-10-11T19:24:33.100Z,23.33
2022-10-11T19:26:38.426Z,21.40
2022-10-11T19:28:47.953Z,21.80
2022-10-11T19:30:51.283Z,20.90
2022-10-11T19:32:57.731Z,24.27
2022-10-11T19:35:03.684Z,22.27
2022-10-11T19:37:13.235Z,18.53
2022-10-11T19:39:19.703Z,19.13
2022-10-11T19:41:25.229Z,19.17
2022-10-11T19:43:31.595Z,17.17
2022-10-11T19:45:37.523Z,17.30
2022-10-11T19:47:43.777Z,19.97
2022-10-11T19:49:56.676Z,17.57
2022-10-11T19:52:02.772Z,22.43
2022-10-11T19:54:10.920Z,27.33
2022-10-11T19:56:16.815Z,19.60
2022-10-11T19:58:20.677Z,20.40
2022-10-11T20:00:24.631Z,21.07
2022-10-11T20:02:34.670Z,19.10
2022-10-11T20:04:54.235Z,18.70
2022-10-11T20:06:59.200Z,21.70
2022-10-11T20:09:24.322Z,19.57
2022-10-11T20:11:28.964Z,21.80
2022-10-11T20:13:35.028Z,22.60
2022-10-11T20:15:39.532Z,21.70
2022-10-11T20:17:51.997Z,18.20
2022-10-11T20:19:55.771Z,21.53
2022-10-11T20:22:00.859Z,21.00
2022-10-11T20:24:06.528Z,24.00
2022-10-11T20:26:12.076Z,21.23
2022-10-11T20:28:16.758Z,21.80
2022-10-11T20:30:20.156Z,19.33
2022-10-11T20:32:23.888Z,19.10
2022-10-11T20:34:28.399Z,19.40
2022-10-11T20:36:33.688Z,19.27
2022-10-11T20:38:40.281Z,20.27
2022-10-11T20:40:43.439Z,17.30
2022-10-11T20:42:46.696Z,17.73
2022-10-11T20:44:49.969Z,15.97
2022-10-11T20:46:53.231Z,20.57
2022-10-11T20:49:02.408Z,18.83
2022-10-11T20:51:08.279Z,17.37
2022-10-11T20:53:16.170Z,18.83
2022-10-11T20:55:23.548Z,18.00
2022-10-11T20:57:27.278Z,17.83
2022-10-11T20:59:30.455Z,23.43
2022-10-11T21:01:35.349Z,32.80
2022-10-11T21:03:38.894Z,25.23
2022-10-11T21:05:42.618Z,33.30
2022-10-11T21:07:45.953Z,28.80
2022-10-11T21:09:51.596Z,32.40
2022-10-11T21:11:57.794Z,22.23
2022-10-11T21:14:03.180Z,16.10
2022-10-11T21:16:10.672Z,15.47
2022-10-11T21:18:15.157Z,16.67
2022-10-11T21:20:19.586Z,21.27
2022-10-11T21:22:24.174Z,25.13
2022-10-11T21:24:29.634Z,18.73
2022-10-11T21:26:35.381Z,23.23
2022-10-11T21:28:42.614Z,15.93
2022-10-11T21:30:46.632Z,17.60
2022-10-11T21:32:51.265Z,17.40
2022-10-11T21:34:55.082Z,16.40
2022-10-11T21:36:58.983Z,19.83
2022-10-11T21:39:05.910Z,19.80
2022-10-11T21:41:11.290Z,23.73
2022-10-11T21:43:15.382Z,20.73
2022-10-11T21:45:20.612Z,20.67
2022-10-11T21:47:26.006Z,17.27
2022-10-11T21:49:32.856Z,17.13
2022-10-11T21:51:36.779Z,17.60
2022-10-11T21:53:40.985Z,19.20
2022-10-11T21:55:44.722Z,21.77
2022-10-11T21:57:48.756Z,20.80
2022-10-11T21:59:52.449Z,19.23
2022-10-11T22:02:01.594Z,17.73
2022-10-11T22:04:07.373Z,16.20
2022-10-11T22:06:11.302Z,16.80
2022-10-11T22:08:15.607Z,14.87
2022-10-11T22:10:19.855Z,15.67
2022-10-11T22:12:23.482Z,20.70
2022-10-11T22:14:27.720Z,21.43
2022-10-11T22:16:31.894Z,17.33
2022-10-11T22:18:36.994Z,20.20
2022-10-11T22:20:40.917Z,16.50
2022-10-11T22:22:44.708Z,17.03
2022-10-11T22:24:48.813Z,19.40
2022-10-11T22:26:52.457Z,19.00
2022-10-11T22:28:56.526Z,16.00
2022-10-11T22:31:00.608Z,19.50
2022-10-11T22:33:04.238Z,17.13
2022-10-11T22:35:09.616Z,20.70
2022-10-11T22:37:13.339Z,20.93
2022-10-11T22:39:17.953Z,18.57
2022-10-11T22:41:22.152Z,15.80
2022-10-11T22:43:28.834Z,15.63
2022-10-11T22:45:32.839Z,14.53
2022-10-11T22:47:36.737Z,19.43
2022-10-11T22:49:40.578Z,17.30
2022-10-11T22:51:45.783Z,14.13
2022-10-11T22:53:49.288Z,15.37
2022-10-11T22:55:55.701Z,16.67
2022-10-11T22:57:59.264Z,19.67
2022-10-11T23:00:02.864Z,18.83
2022-10-11T23:02:06.371Z,15.47
2022-10-11T23:04:09.745Z,19.80
2022-10-11T23:06:13.299Z,19.57
2022-10-11T23:08:18.238Z,17.67
2022-10-11T23:10:21.599Z,13.97
2022-10-11T23:12:25.294Z,19.47
2022-10-11T23:14:28.738Z,17.17
2022-10-11T23:16:33.495Z,19.00
2022-10-11T23:18:37.628Z,18.20
2022-10-11T23:20:41.063Z,19.83
2022-10-11T23:22:44.582Z,18.33
2022-10-11T23:24:49.664Z,17.77
2022-10-11T23:26:54.700Z,18.50
2022-10-11T23:28:58.511Z,15.67
2022-10-11T23:31:02.190Z,17.97
2022-10-11T23:33:05.642Z,17.10
2022-10-11T23:35:09.722Z,21.23
2022-10-11T23:37:13.413Z,18.03
2022-10-11T23:39:17.220Z,20.47
2022-10-11T23:41:22.712Z,18.13
2022-10-11T23:43:26.506Z,19.90
2022-10-11T23:45:29.921Z,26.43
2022-10-11T23:47:33.321Z,19.03
2022-10-11T23:49:36.906Z,14.63
2022-10-11T23:51:40.403Z,18.13
2022-10-11T23:53:44.217Z,18.73
2022-10-11T23:55:47.535Z,16.63
2022-10-11T23:57:52.249Z,18.23
2022-10-11T23:59:55.620Z,15.50
